sensor_id;sensor_type;location;lat;lon;timestamp;noise_LAeq;noise_LA_min;noise_LA_max;noise_LA01;noise_LA95
77361;Laerm;66427;51.798;10.954;2023-08-31T00:00:41;30.20;27.94;34.37;;
77361;Laerm;66427;51.798;10.954;2023-08-31T00:03:07;29.44;27.57;34.29;;
77361;Laerm;66427;51.798;10.954;2023-08-31T00:05:36;28.81;27.40;35.62;;
77361;Laerm;66427;51.798;10.954;2023-08-31T00:08:01;29.90;28.19;35.69;;
77361;Laerm;66427;51.798;10.954;2023-08-31T00:10:27;29.43;27.57;38.43;;
77361;Laerm;66427;51.798;10.954;2023-08-31T00:12:52;31.16;29.20;36.09;;
77361;Laerm;66427;51.798;10.954;2023-08-31T00:15:17;35.63;30.87;43.80;;
77361;Laerm;66427;51.798;10.954;2023-08-31T00:17:43;33.95;30.74;46.35;;
77361;Laerm;66427;51.798;10.954;2023-08-31T00:20:08;34.53;31.22;42.97;;
77361;Laerm;66427;51.798;10.954;2023-08-31T00:22:37;35.49;29.90;45.26;;
77361;Laerm;66427;51.798;10.954;2023-08-31T00:25:03;34.53;31.81;43.75;;
77361;Laerm;66427;51.798;10.954;2023-08-31T00:27:30;37.61;32.38;47.42;;
77361;Laerm;66427;51.798;10.954;2023-08-31T00:29:56;35.57;31.74;40.31;;
77361;Laerm;66427;51.798;10.954;2023-08-31T00:32:22;34.18;30.62;41.41;;
77361;Laerm;66427;51.798;10.954;2023-08-31T00:34:49;36.06;30.58;44.50;;
77361;Laerm;66427;51.798;10.954;2023-08-31T00:37:14;35.76;30.18;41.01;;
77361;Laerm;66427;51.798;10.954;2023-08-31T00:39:40;35.70;31.26;42.34;;
77361;Laerm;66427;51.798;10.954;2023-08-31T00:42:05;37.18;31.43;48.82;;
77361;Laerm;66427;51.798;10.954;2023-08-31T00:44:31;35.70;31.15;43.21;;
77361;Laerm;66427;51.798;10.954;2023-08-31T00:46:57;32.41;30.10;38.76;;
77361;Laerm;66427;51.798;10.954;2023-08-31T00:49:22;33.27;29.36;37.99;;
77361;Laerm;66427;51.798;10.954;2023-08-31T00:51:48;33.64;29.77;39.31;;
77361;Laerm;66427;51.798;10.954;2023-08-31T00:54:18;32.21;29.06;42.99;;
77361;Laerm;66427;51.798;10.954;2023-08-31T00:56:43;30.68;28.45;34.05;;
77361;Laerm;66427;51.798;10.954;2023-08-31T00:59:09;33.27;28.67;40.70;;
77361;Laerm;66427;51.798;10.954;2023-08-31T01:01:39;33.26;30.05;39.69;;
77361;Laerm;66427;51.798;10.954;2023-08-31T01:04:57;34.57;31.09;38.89;;
77361;Laerm;66427;51.798;10.954;2023-08-31T01:07:00;34.45;30.88;41.48;;
77361;Laerm;66427;51.798;10.954;2023-08-31T01:12:18;33.35;30.14;38.38;;
77361;Laerm;66427;51.798;10.954;2023-08-31T01:15:09;31.78;28.51;38.87;;
77361;Laerm;66427;51.798;10.954;2023-08-31T01:17:42;30.65;29.09;33.42;;
77361;Laerm;66427;51.798;10.954;2023-08-31T01:20:10;30.60;28.33;37.57;;
77361;Laerm;66427;51.798;10.954;2023-08-31T01:22:47;33.69;28.98;38.78;;
77361;Laerm;66427;51.798;10.954;2023-08-31T01:25:13;31.65;28.89;38.13;;
77361;Laerm;66427;51.798;10.954;2023-08-31T01:27:39;29.87;27.63;33.55;;
77361;Laerm;66427;51.798;10.954;2023-08-31T01:30:05;31.20;28.23;37.19;;
77361;Laerm;66427;51.798;10.954;2023-08-31T01:32:31;30.80;28.42;39.48;;
77361;Laerm;66427;51.798;10.954;2023-08-31T01:34:57;31.13;28.73;40.24;;
77361;Laerm;66427;51.798;10.954;2023-08-31T01:37:27;33.10;28.31;42.43;;
77361;Laerm;66427;51.798;10.954;2023-08-31T01:39:58;30.61;28.27;36.32;;
77361;Laerm;66427;51.798;10.954;2023-08-31T01:42:29;30.66;28.08;37.31;;
77361;Laerm;66427;51.798;10.954;2023-08-31T01:44:55;29.18;27.60;34.75;;
77361;Laerm;66427;51.798;10.954;2023-08-31T01:47:22;31.08;27.59;40.29;;
77361;Laerm;66427;51.798;10.954;2023-08-31T01:49:48;30.28;28.05;36.85;;
77361;Laerm;66427;51.798;10.954;2023-08-31T01:52:13;32.22;28.84;40.05;;
77361;Laerm;66427;51.798;10.954;2023-08-31T01:54:38;31.85;28.18;45.72;;
77361;Laerm;66427;51.798;10.954;2023-08-31T01:57:04;32.57;28.06;45.54;;
77361;Laerm;66427;51.798;10.954;2023-08-31T01:59:30;30.40;28.01;35.60;;
77361;Laerm;66427;51.798;10.954;2023-08-31T02:01:56;29.77;27.72;36.30;;
77361;Laerm;66427;51.798;10.954;2023-08-31T02:04:21;31.93;28.51;45.82;;
77361;Laerm;66427;51.798;10.954;2023-08-31T02:06:47;31.40;27.83;42.01;;
77361;Laerm;66427;51.798;10.954;2023-08-31T02:09:13;30.70;28.50;36.48;;
77361;Laerm;66427;51.798;10.954;2023-08-31T02:11:39;30.59;27.96;38.27;;
77361;Laerm;66427;51.798;10.954;2023-08-31T02:14:04;31.69;27.67;44.76;;
77361;Laerm;66427;51.798;10.954;2023-08-31T02:16:30;31.27;28.75;38.83;;
77361;Laerm;66427;51.798;10.954;2023-08-31T02:18:56;31.70;28.20;37.08;;
77361;Laerm;66427;51.798;10.954;2023-08-31T02:21:21;30.90;27.77;38.33;;
77361;Laerm;66427;51.798;10.954;2023-08-31T02:23:47;30.24;27.83;37.06;;
77361;Laerm;66427;51.798;10.954;2023-08-31T02:26:13;32.60;28.52;44.76;;
77361;Laerm;66427;51.798;10.954;2023-08-31T02:28:38;36.01;31.70;49.08;;
77361;Laerm;66427;51.798;10.954;2023-08-31T02:31:04;33.57;31.65;39.26;;
77361;Laerm;66427;51.798;10.954;2023-08-31T02:33:29;33.22;29.72;40.12;;
77361;Laerm;66427;51.798;10.954;2023-08-31T02:35:54;31.93;29.80;37.72;;
77361;Laerm;66427;51.798;10.954;2023-08-31T02:38:20;31.19;29.22;40.55;;
77361;Laerm;66427;51.798;10.954;2023-08-31T02:40:46;33.78;28.98;51.48;;
77361;Laerm;66427;51.798;10.954;2023-08-31T02:43:12;33.81;29.49;50.98;;
77361;Laerm;66427;51.798;10.954;2023-08-31T02:45:38;52.89;30.75;69.58;;
77361;Laerm;66427;51.798;10.954;2023-08-31T02:48:03;34.11;30.36;49.92;;
77361;Laerm;66427;51.798;10.954;2023-08-31T02:50:29;34.76;31.28;43.79;;
77361;Laerm;66427;51.798;10.954;2023-08-31T02:52:55;52.89;31.01;67.26;;
77361;Laerm;66427;51.798;10.954;2023-08-31T02:55:20;40.58;29.36;56.32;;
77361;Laerm;66427;51.798;10.954;2023-08-31T02:57:46;33.22;29.69;44.89;;
77361;Laerm;66427;51.798;10.954;2023-08-31T03:00:11;33.41;30.30;45.76;;
77361;Laerm;66427;51.798;10.954;2023-08-31T03:02:38;32.32;29.45;43.70;;
77361;Laerm;66427;51.798;10.954;2023-08-31T03:05:03;32.61;29.77;39.80;;
77361;Laerm;66427;51.798;10.954;2023-08-31T03:07:29;33.60;30.91;40.72;;
77361;Laerm;66427;51.798;10.954;2023-08-31T03:09:54;37.77;32.61;48.97;;
77361;Laerm;66427;51.798;10.954;2023-08-31T03:12:19;33.65;30.88;43.76;;
77361;Laerm;66427;51.798;10.954;2023-08-31T03:14:45;37.29;32.37;48.34;;
77361;Laerm;66427;51.798;10.954;2023-08-31T03:17:10;37.19;32.35;46.78;;
77361;Laerm;66427;51.798;10.954;2023-08-31T03:19:35;37.46;32.25;60.12;;
77361;Laerm;66427;51.798;10.954;2023-08-31T03:22:01;52.25;32.86;69.25;;
77361;Laerm;66427;51.798;10.954;2023-08-31T03:24:26;37.03;33.53;46.22;;
77361;Laerm;66427;51.798;10.954;2023-08-31T03:26:52;47.47;33.36;62.44;;
77361;Laerm;66427;51.798;10.954;2023-08-31T03:29:17;48.06;31.81;61.53;;
77361;Laerm;66427;51.798;10.954;2023-08-31T03:31:42;36.57;32.65;44.28;;
77361;Laerm;66427;51.798;10.954;2023-08-31T03:34:08;37.63;32.02;45.05;;
77361;Laerm;66427;51.798;10.954;2023-08-31T03:36:33;45.30;32.15;60.23;;
77361;Laerm;66427;51.798;10.954;2023-08-31T03:38:58;36.04;33.28;44.18;;
77361;Laerm;66427;51.798;10.954;2023-08-31T03:41:24;37.87;33.89;50.27;;
77361;Laerm;66427;51.798;10.954;2023-08-31T03:43:49;42.87;34.32;55.81;;
77361;Laerm;66427;51.798;10.954;2023-08-31T03:46:15;48.71;33.48;63.27;;
77361;Laerm;66427;51.798;10.954;2023-08-31T03:48:40;47.16;33.23;62.42;;
77361;Laerm;66427;51.798;10.954;2023-08-31T03:51:05;38.87;33.91;52.14;;
77361;Laerm;66427;51.798;10.954;2023-08-31T03:53:31;50.24;34.78;64.80;;
77361;Laerm;66427;51.798;10.954;2023-08-31T03:55:56;58.75;33.71;75.82;;
77361;Laerm;66427;51.798;10.954;2023-08-31T03:58:21;54.44;33.77;67.54;;
77361;Laerm;66427;51.798;10.954;2023-08-31T04:00:50;50.93;33.98;63.04;;
77361;Laerm;66427;51.798;10.954;2023-08-31T04:03:15;50.75;32.70;64.32;;
77361;Laerm;66427;51.798;10.954;2023-08-31T04:05:41;54.31;33.74;69.77;;
77361;Laerm;66427;51.798;10.954;2023-08-31T04:08:07;47.07;33.89;64.65;;
77361;Laerm;66427;51.798;10.954;2023-08-31T04:10:32;44.84;34.11;57.86;;
77361;Laerm;66427;51.798;10.954;2023-08-31T04:12:58;38.05;34.53;46.95;;
77361;Laerm;66427;51.798;10.954;2023-08-31T04:15:23;55.25;36.34;68.61;;
77361;Laerm;66427;51.798;10.954;2023-08-31T04:17:48;53.44;35.14;71.44;;
77361;Laerm;66427;51.798;10.954;2023-08-31T04:20:17;55.10;36.45;69.50;;
77361;Laerm;66427;51.798;10.954;2023-08-31T04:22:43;54.20;36.22;68.07;;
77361;Laerm;66427;51.798;10.954;2023-08-31T04:25:08;58.07;36.15;77.47;;
77361;Laerm;66427;51.798;10.954;2023-08-31T04:27:33;54.29;35.86;67.99;;
77361;Laerm;66427;51.798;10.954;2023-08-31T04:30:00;50.39;35.35;64.12;;
77361;Laerm;66427;51.798;10.954;2023-08-31T04:32:25;57.31;37.59;70.43;;
77361;Laerm;66427;51.798;10.954;2023-08-31T04:34:51;60.59;35.79;79.01;;
77361;Laerm;66427;51.798;10.954;2023-08-31T04:37:16;55.96;34.78;72.79;;
77361;Laerm;66427;51.798;10.954;2023-08-31T04:39:42;57.51;38.79;68.39;;
77361;Laerm;66427;51.798;10.954;2023-08-31T04:42:07;55.09;36.29;67.48;;
77361;Laerm;66427;51.798;10.954;2023-08-31T04:44:33;51.77;37.87;64.94;;
77361;Laerm;66427;51.798;10.954;2023-08-31T04:46:59;45.69;36.13;63.89;;
77361;Laerm;66427;51.798;10.954;2023-08-31T04:49:24;57.42;34.87;70.94;;
77361;Laerm;66427;51.798;10.954;2023-08-31T04:51:49;55.86;35.42;70.92;;
77361;Laerm;66427;51.798;10.954;2023-08-31T04:54:15;54.78;35.03;70.00;;
77361;Laerm;66427;51.798;10.954;2023-08-31T04:56:40;56.05;37.41;68.87;;
77361;Laerm;66427;51.798;10.954;2023-08-31T04:59:06;56.55;38.40;72.54;;
77361;Laerm;66427;51.798;10.954;2023-08-31T05:01:31;55.37;36.94;68.60;;
77361;Laerm;66427;51.798;10.954;2023-08-31T05:03:56;53.09;38.16;68.25;;
77361;Laerm;66427;51.798;10.954;2023-08-31T05:06:22;60.85;40.18;71.11;;
77361;Laerm;66427;51.798;10.954;2023-08-31T05:08:48;61.57;35.32;76.96;;
77361;Laerm;66427;51.798;10.954;2023-08-31T05:11:13;51.55;35.93;68.09;;
77361;Laerm;66427;51.798;10.954;2023-08-31T05:13:39;60.81;38.28;78.38;;
77361;Laerm;66427;51.798;10.954;2023-08-31T05:16:07;52.63;35.67;65.85;;
77361;Laerm;66427;51.798;10.954;2023-08-31T05:18:32;53.94;34.66;66.31;;
77361;Laerm;66427;51.798;10.954;2023-08-31T05:20:58;56.38;36.36;70.80;;
77361;Laerm;66427;51.798;10.954;2023-08-31T05:23:23;58.65;41.66;73.69;;
77361;Laerm;66427;51.798;10.954;2023-08-31T05:25:49;57.75;39.60;66.85;;
77361;Laerm;66427;51.798;10.954;2023-08-31T05:28:14;56.34;42.62;68.62;;
77361;Laerm;66427;51.798;10.954;2023-08-31T05:30:49;59.81;42.40;73.67;;
77361;Laerm;66427;51.798;10.954;2023-08-31T05:33:16;69.67;49.05;81.35;;
77361;Laerm;66427;51.798;10.954;2023-08-31T05:35:41;67.23;49.44;78.41;;
77361;Laerm;66427;51.798;10.954;2023-08-31T05:38:07;60.62;46.51;71.28;;
77361;Laerm;66427;51.798;10.954;2023-08-31T05:40:32;54.43;44.97;70.51;;
77361;Laerm;66427;51.798;10.954;2023-08-31T05:42:57;56.39;40.90;66.64;;
77361;Laerm;66427;51.798;10.954;2023-08-31T05:45:23;58.44;40.75;69.04;;
77361;Laerm;66427;51.798;10.954;2023-08-31T05:47:48;52.37;38.55;67.59;;
77361;Laerm;66427;51.798;10.954;2023-08-31T05:50:13;47.60;38.99;60.65;;
77361;Laerm;66427;51.798;10.954;2023-08-31T05:52:39;73.71;45.53;85.06;;
77361;Laerm;66427;51.798;10.954;2023-08-31T05:55:09;67.26;48.11;80.38;;
77361;Laerm;66427;51.798;10.954;2023-08-31T05:57:34;57.21;38.18;69.71;;
77361;Laerm;66427;51.798;10.954;2023-08-31T05:59:59;52.54;38.58;64.99;;
77361;Laerm;66427;51.798;10.954;2023-08-31T06:02:25;62.78;36.47;79.19;;
77361;Laerm;66427;51.798;10.954;2023-08-31T06:04:50;51.29;34.79;65.71;;
77361;Laerm;66427;51.798;10.954;2023-08-31T06:07:15;54.38;37.16;67.79;;
77361;Laerm;66427;51.798;10.954;2023-08-31T06:09:41;57.53;36.70;69.13;;
77361;Laerm;66427;51.798;10.954;2023-08-31T06:12:06;56.52;36.99;69.58;;
77361;Laerm;66427;51.798;10.954;2023-08-31T06:14:32;51.18;36.92;62.51;;
77361;Laerm;66427;51.798;10.954;2023-08-31T06:16:58;55.73;40.81;68.47;;
77361;Laerm;66427;51.798;10.954;2023-08-31T06:19:23;53.15;43.38;63.79;;
77361;Laerm;66427;51.798;10.954;2023-08-31T06:21:49;51.62;41.29;66.94;;
77361;Laerm;66427;51.798;10.954;2023-08-31T06:24:14;56.22;46.12;68.91;;
77361;Laerm;66427;51.798;10.954;2023-08-31T06:26:40;55.59;42.87;69.34;;
77361;Laerm;66427;51.798;10.954;2023-08-31T06:29:05;56.68;40.04;69.13;;
77361;Laerm;66427;51.798;10.954;2023-08-31T06:31:33;52.92;40.46;65.09;;
77361;Laerm;66427;51.798;10.954;2023-08-31T06:33:58;59.96;40.07;74.79;;
77361;Laerm;66427;51.798;10.954;2023-08-31T06:36:23;56.92;39.47;70.83;;
77361;Laerm;66427;51.798;10.954;2023-08-31T06:38:49;56.51;38.72;72.39;;
77361;Laerm;66427;51.798;10.954;2023-08-31T06:41:14;57.40;40.21;69.38;;
77361;Laerm;66427;51.798;10.954;2023-08-31T06:43:40;42.18;39.17;49.29;;
77361;Laerm;66427;51.798;10.954;2023-08-31T06:46:06;59.04;38.61;72.42;;
77361;Laerm;66427;51.798;10.954;2023-08-31T06:48:31;62.59;43.33;75.17;;
77361;Laerm;66427;51.798;10.954;2023-08-31T06:50:56;58.13;40.54;69.77;;
77361;Laerm;66427;51.798;10.954;2023-08-31T06:53:22;53.10;39.40;68.84;;
77361;Laerm;66427;51.798;10.954;2023-08-31T06:55:47;64.35;39.29;80.99;;
77361;Laerm;66427;51.798;10.954;2023-08-31T06:58:13;58.91;36.16;75.11;;
77361;Laerm;66427;51.798;10.954;2023-08-31T07:00:38;52.26;37.03;68.64;;
77361;Laerm;66427;51.798;10.954;2023-08-31T07:03:04;54.65;36.65;66.39;;
77361;Laerm;66427;51.798;10.954;2023-08-31T07:05:32;57.45;37.06;67.81;;
77361;Laerm;66427;51.798;10.954;2023-08-31T07:07:58;53.91;34.54;66.80;;
77361;Laerm;66427;51.798;10.954;2023-08-31T07:10:23;53.20;34.64;69.20;;
77361;Laerm;66427;51.798;10.954;2023-08-31T07:12:49;58.94;36.82;69.18;;
77361;Laerm;66427;51.798;10.954;2023-08-31T07:15:14;57.83;36.94;68.55;;
77361;Laerm;66427;51.798;10.954;2023-08-31T07:17:39;56.00;36.35;68.94;;
77361;Laerm;66427;51.798;10.954;2023-08-31T07:20:05;58.28;38.90;67.15;;
77361;Laerm;66427;51.798;10.954;2023-08-31T07:22:32;53.35;35.84;65.20;;
77361;Laerm;66427;51.798;10.954;2023-08-31T07:24:57;55.82;35.68;72.37;;
77361;Laerm;66427;51.798;10.954;2023-08-31T07:27:23;52.99;35.27;67.90;;
77361;Laerm;66427;51.798;10.954;2023-08-31T07:29:48;51.96;35.49;73.07;;
77361;Laerm;66427;51.798;10.954;2023-08-31T07:32:13;54.69;36.14;64.51;;
77361;Laerm;66427;51.798;10.954;2023-08-31T07:34:39;57.11;37.58;76.15;;
77361;Laerm;66427;51.798;10.954;2023-08-31T07:37:04;52.76;37.68;66.96;;
77361;Laerm;66427;51.798;10.954;2023-08-31T07:39:31;56.14;40.89;73.03;;
77361;Laerm;66427;51.798;10.954;2023-08-31T07:41:56;55.59;39.80;67.01;;
77361;Laerm;66427;51.798;10.954;2023-08-31T07:44:23;60.78;40.36;74.99;;
77361;Laerm;66427;51.798;10.954;2023-08-31T07:46:48;56.09;37.69;74.47;;
77361;Laerm;66427;51.798;10.954;2023-08-31T07:49:14;53.36;38.11;68.10;;
77361;Laerm;66427;51.798;10.954;2023-08-31T07:51:39;53.68;37.82;65.69;;
77361;Laerm;66427;51.798;10.954;2023-08-31T07:54:05;55.84;37.26;67.50;;
77361;Laerm;66427;51.798;10.954;2023-08-31T07:56:30;53.61;37.44;67.47;;
77361;Laerm;66427;51.798;10.954;2023-08-31T07:58:55;53.82;38.13;63.88;;
77361;Laerm;66427;51.798;10.954;2023-08-31T08:01:21;55.34;38.67;70.69;;
77361;Laerm;66427;51.798;10.954;2023-08-31T08:03:46;50.06;36.10;66.36;;
77361;Laerm;66427;51.798;10.954;2023-08-31T08:06:11;53.90;36.51;68.76;;
77361;Laerm;66427;51.798;10.954;2023-08-31T08:08:37;52.36;37.18;63.32;;
77361;Laerm;66427;51.798;10.954;2023-08-31T08:11:03;56.16;37.72;66.19;;
77361;Laerm;66427;51.798;10.954;2023-08-31T08:13:29;53.40;38.31;64.88;;
77361;Laerm;66427;51.798;10.954;2023-08-31T08:15:54;53.68;39.44;66.25;;
77361;Laerm;66427;51.798;10.954;2023-08-31T08:18:19;54.40;40.58;66.83;;
77361;Laerm;66427;51.798;10.954;2023-08-31T08:20:48;53.09;41.69;66.58;;
77361;Laerm;66427;51.798;10.954;2023-08-31T08:23:14;54.98;41.72;67.82;;
77361;Laerm;66427;51.798;10.954;2023-08-31T08:25:39;57.35;41.96;68.83;;
77361;Laerm;66427;51.798;10.954;2023-08-31T08:28:05;55.53;39.15;69.03;;
77361;Laerm;66427;51.798;10.954;2023-08-31T08:30:30;51.40;38.46;65.26;;
77361;Laerm;66427;51.798;10.954;2023-08-31T08:32:55;63.31;40.13;82.45;;
77361;Laerm;66427;51.798;10.954;2023-08-31T08:35:22;52.30;37.99;63.32;;
77361;Laerm;66427;51.798;10.954;2023-08-31T08:37:47;54.10;39.35;64.75;;
77361;Laerm;66427;51.798;10.954;2023-08-31T08:40:13;59.04;45.44;74.19;;
77361;Laerm;66427;51.798;10.954;2023-08-31T08:42:39;52.59;42.09;65.28;;
77361;Laerm;66427;51.798;10.954;2023-08-31T08:45:06;55.65;39.17;65.41;;
77361;Laerm;66427;51.798;10.954;2023-08-31T08:47:33;57.62;39.24;66.99;;
77361;Laerm;66427;51.798;10.954;2023-08-31T08:49:59;58.72;37.93;73.67;;
77361;Laerm;66427;51.798;10.954;2023-08-31T08:52:25;52.09;40.66;64.05;;
77361;Laerm;66427;51.798;10.954;2023-08-31T08:54:51;56.03;39.19;66.10;;
77361;Laerm;66427;51.798;10.954;2023-08-31T08:57:17;53.34;39.72;64.76;;
77361;Laerm;66427;51.798;10.954;2023-08-31T08:59:43;55.61;41.07;66.30;;
77361;Laerm;66427;51.798;10.954;2023-08-31T09:02:09;48.13;41.47;60.40;;
77361;Laerm;66427;51.798;10.954;2023-08-31T09:04:35;56.96;41.78;66.15;;
77361;Laerm;66427;51.798;10.954;2023-08-31T09:07:01;57.22;41.60;69.91;;
77361;Laerm;66427;51.798;10.954;2023-08-31T09:09:26;57.86;40.32;71.74;;
77361;Laerm;66427;51.798;10.954;2023-08-31T09:11:51;56.41;41.70;68.55;;
77361;Laerm;66427;51.798;10.954;2023-08-31T09:14:17;55.35;40.00;69.23;;
77361;Laerm;66427;51.798;10.954;2023-08-31T09:16:50;52.87;40.93;63.84;;
77361;Laerm;66427;51.798;10.954;2023-08-31T09:19:22;54.57;39.34;67.59;;
77361;Laerm;66427;51.798;10.954;2023-08-31T09:21:48;57.36;39.90;69.05;;
77361;Laerm;66427;51.798;10.954;2023-08-31T09:24:14;57.16;39.94;72.86;;
77361;Laerm;66427;51.798;10.954;2023-08-31T09:26:39;58.24;40.13;69.67;;
77361;Laerm;66427;51.798;10.954;2023-08-31T09:29:05;55.84;40.80;66.45;;
77361;Laerm;66427;51.798;10.954;2023-08-31T09:31:31;61.33;40.96;77.39;;
77361;Laerm;66427;51.798;10.954;2023-08-31T09:33:56;50.72;41.11;64.62;;
77361;Laerm;66427;51.798;10.954;2023-08-31T09:36:22;55.29;40.10;68.87;;
77361;Laerm;66427;51.798;10.954;2023-08-31T09:38:48;61.60;40.61;76.74;;
77361;Laerm;66427;51.798;10.954;2023-08-31T09:41:13;55.69;40.63;67.88;;
77361;Laerm;66427;51.798;10.954;2023-08-31T09:43:40;53.02;42.93;63.01;;
77361;Laerm;66427;51.798;10.954;2023-08-31T09:46:05;55.69;39.64;66.72;;
77361;Laerm;66427;51.798;10.954;2023-08-31T09:48:31;54.51;39.36;63.55;;
77361;Laerm;66427;51.798;10.954;2023-08-31T09:50:56;54.84;42.34;67.76;;
77361;Laerm;66427;51.798;10.954;2023-08-31T09:53:25;49.43;39.00;62.50;;
77361;Laerm;66427;51.798;10.954;2023-08-31T09:55:52;56.55;40.69;69.95;;
77361;Laerm;66427;51.798;10.954;2023-08-31T09:58:19;56.48;40.23;65.97;;
77361;Laerm;66427;51.798;10.954;2023-08-31T10:00:46;47.73;38.65;61.69;;
77361;Laerm;66427;51.798;10.954;2023-08-31T10:03:11;53.71;37.90;69.33;;
77361;Laerm;66427;51.798;10.954;2023-08-31T10:05:41;57.83;38.86;70.95;;
77361;Laerm;66427;51.798;10.954;2023-08-31T10:08:07;55.41;37.91;71.56;;
77361;Laerm;66427;51.798;10.954;2023-08-31T10:10:33;54.47;39.07;66.34;;
77361;Laerm;66427;51.798;10.954;2023-08-31T10:13:03;48.90;40.28;64.24;;
77361;Laerm;66427;51.798;10.954;2023-08-31T10:15:31;51.91;38.42;66.28;;
77361;Laerm;66427;51.798;10.954;2023-08-31T10:17:57;54.90;41.37;69.09;;
77361;Laerm;66427;51.798;10.954;2023-08-31T10:20:24;51.95;41.55;66.85;;
77361;Laerm;66427;51.798;10.954;2023-08-31T10:22:54;58.35;41.75;71.25;;
77361;Laerm;66427;51.798;10.954;2023-08-31T10:25:19;57.61;45.61;69.73;;
77361;Laerm;66427;51.798;10.954;2023-08-31T10:27:46;54.31;43.51;64.86;;
77361;Laerm;66427;51.798;10.954;2023-08-31T10:32:41;53.16;40.79;65.50;;
77361;Laerm;66427;51.798;10.954;2023-08-31T10:35:08;63.18;37.51;79.45;;
77361;Laerm;66427;51.798;10.954;2023-08-31T10:37:34;51.59;40.98;62.92;;
77361;Laerm;66427;51.798;10.954;2023-08-31T10:40:11;57.74;39.09;74.01;;
77361;Laerm;66427;51.798;10.954;2023-08-31T10:42:43;56.44;39.28;68.08;;
77361;Laerm;66427;51.798;10.954;2023-08-31T10:45:09;50.96;38.31;62.84;;
77361;Laerm;66427;51.798;10.954;2023-08-31T10:47:37;57.17;42.43;67.93;;
77361;Laerm;66427;51.798;10.954;2023-08-31T10:50:20;53.29;37.89;68.54;;
77361;Laerm;66427;51.798;10.954;2023-08-31T10:52:47;53.16;37.94;65.74;;
77361;Laerm;66427;51.798;10.954;2023-08-31T10:55:14;56.30;38.39;66.30;;
77361;Laerm;66427;51.798;10.954;2023-08-31T10:57:40;54.31;38.08;69.34;;
77361;Laerm;66427;51.798;10.954;2023-08-31T11:00:08;59.80;38.28;78.92;;
77361;Laerm;66427;51.798;10.954;2023-08-31T11:02:36;59.47;43.06;69.77;;
77361;Laerm;66427;51.798;10.954;2023-08-31T11:05:09;53.07;40.16;67.25;;
77361;Laerm;66427;51.798;10.954;2023-08-31T11:07:34;56.91;39.92;68.57;;
77361;Laerm;66427;51.798;10.954;2023-08-31T11:12:41;52.53;38.41;66.09;;
77361;Laerm;66427;51.798;10.954;2023-08-31T11:15:06;52.91;36.22;66.38;;
77361;Laerm;66427;51.798;10.954;2023-08-31T11:17:32;57.55;36.24;71.30;;
77361;Laerm;66427;51.798;10.954;2023-08-31T11:19:58;50.59;36.20;66.13;;
77361;Laerm;66427;51.798;10.954;2023-08-31T11:22:24;64.15;39.14;77.27;;
77361;Laerm;66427;51.798;10.954;2023-08-31T11:24:49;54.37;38.28;68.68;;
77361;Laerm;66427;51.798;10.954;2023-08-31T11:27:14;56.95;38.09;73.03;;
77361;Laerm;66427;51.798;10.954;2023-08-31T11:29:43;53.62;40.52;66.97;;
77361;Laerm;66427;51.798;10.954;2023-08-31T11:32:09;58.58;40.45;70.82;;
77361;Laerm;66427;51.798;10.954;2023-08-31T11:34:34;58.98;40.14;72.79;;
77361;Laerm;66427;51.798;10.954;2023-08-31T11:37:01;59.88;41.30;74.87;;
77361;Laerm;66427;51.798;10.954;2023-08-31T11:39:27;60.65;41.20;75.71;;
77361;Laerm;66427;51.798;10.954;2023-08-31T11:41:53;56.20;40.71;69.49;;
77361;Laerm;66427;51.798;10.954;2023-08-31T11:44:19;55.00;40.68;69.90;;
77361;Laerm;66427;51.798;10.954;2023-08-31T11:46:45;46.04;39.89;60.60;;
77361;Laerm;66427;51.798;10.954;2023-08-31T11:49:13;60.15;43.93;72.62;;
77361;Laerm;66427;51.798;10.954;2023-08-31T11:51:39;55.76;41.47;69.22;;
77361;Laerm;66427;51.798;10.954;2023-08-31T11:54:05;60.64;41.72;74.59;;
77361;Laerm;66427;51.798;10.954;2023-08-31T11:59:11;62.53;44.80;79.79;;
77361;Laerm;66427;51.798;10.954;2023-08-31T12:01:38;57.44;46.49;69.01;;
77361;Laerm;66427;51.798;10.954;2023-08-31T12:04:09;56.78;45.19;68.00;;
77361;Laerm;66427;51.798;10.954;2023-08-31T12:06:35;55.42;46.15;70.01;;
77361;Laerm;66427;51.798;10.954;2023-08-31T12:09:00;56.96;48.57;72.06;;
77361;Laerm;66427;51.798;10.954;2023-08-31T12:11:26;59.35;46.24;73.04;;
77361;Laerm;66427;51.798;10.954;2023-08-31T12:13:51;58.68;47.24;72.89;;
77361;Laerm;66427;51.798;10.954;2023-08-31T12:16:17;60.46;48.24;73.71;;
77361;Laerm;66427;51.798;10.954;2023-08-31T12:18:43;66.88;53.54;81.84;;
77361;Laerm;66427;51.798;10.954;2023-08-31T12:21:08;59.87;49.01;72.04;;
77361;Laerm;66427;51.798;10.954;2023-08-31T12:23:34;58.76;46.50;71.29;;
77361;Laerm;66427;51.798;10.954;2023-08-31T12:25:59;60.59;41.53;75.11;;
77361;Laerm;66427;51.798;10.954;2023-08-31T12:28:25;56.72;41.01;71.48;;
77361;Laerm;66427;51.798;10.954;2023-08-31T12:30:51;44.78;40.26;53.91;;
77361;Laerm;66427;51.798;10.954;2023-08-31T12:33:17;59.19;39.19;75.42;;
77361;Laerm;66427;51.798;10.954;2023-08-31T12:35:43;54.21;39.39;71.37;;
77361;Laerm;66427;51.798;10.954;2023-08-31T12:38:08;56.88;38.48;69.19;;
77361;Laerm;66427;51.798;10.954;2023-08-31T12:40:34;53.62;38.15;67.33;;
77361;Laerm;66427;51.798;10.954;2023-08-31T12:42:59;55.53;39.52;69.07;;
77361;Laerm;66427;51.798;10.954;2023-08-31T12:45:25;53.30;40.57;64.36;;
77361;Laerm;66427;51.798;10.954;2023-08-31T12:47:50;56.79;39.97;69.32;;
77361;Laerm;66427;51.798;10.954;2023-08-31T12:50:15;60.35;39.42;69.84;;
77361;Laerm;66427;51.798;10.954;2023-08-31T12:52:41;58.18;40.82;70.72;;
77361;Laerm;66427;51.798;10.954;2023-08-31T12:55:11;57.02;38.54;69.80;;
77361;Laerm;66427;51.798;10.954;2023-08-31T12:57:37;54.40;40.50;66.16;;
77361;Laerm;66427;51.798;10.954;2023-08-31T13:00:02;53.95;41.17;64.15;;
77361;Laerm;66427;51.798;10.954;2023-08-31T13:02:30;58.13;42.83;68.54;;
77361;Laerm;66427;51.798;10.954;2023-08-31T13:04:55;59.60;42.33;82.87;;
77361;Laerm;66427;51.798;10.954;2023-08-31T13:07:20;58.19;40.56;69.41;;
77361;Laerm;66427;51.798;10.954;2023-08-31T13:09:46;57.37;43.58;68.56;;
77361;Laerm;66427;51.798;10.954;2023-08-31T13:12:11;51.68;37.06;65.04;;
77361;Laerm;66427;51.798;10.954;2023-08-31T13:14:37;55.69;38.17;66.85;;
77361;Laerm;66427;51.798;10.954;2023-08-31T13:17:02;57.61;40.70;69.71;;
77361;Laerm;66427;51.798;10.954;2023-08-31T13:19:28;56.89;37.69;70.27;;
77361;Laerm;66427;51.798;10.954;2023-08-31T13:21:54;56.44;40.48;68.18;;
77361;Laerm;66427;51.798;10.954;2023-08-31T13:24:19;61.90;44.09;74.05;;
77361;Laerm;66427;51.798;10.954;2023-08-31T13:26:45;58.15;41.74;69.88;;
77361;Laerm;66427;51.798;10.954;2023-08-31T13:29:13;56.68;38.43;67.39;;
77361;Laerm;66427;51.798;10.954;2023-08-31T13:31:38;54.00;41.56;66.27;;
77361;Laerm;66427;51.798;10.954;2023-08-31T13:34:04;60.66;47.22;74.43;;
77361;Laerm;66427;51.798;10.954;2023-08-31T13:36:31;60.05;46.78;71.87;;